Time;durP1;ratioP1;P1;durP2;ratioP2;P2;SDS_P1;SDS_P2;PMS_P1;PMS_P2;Temp;Humidity;BMP_temperature;BMP_pressure;BME280_temperature;BME280_humidity;BME280_pressure;Samples;Min_cycle;Max_cycle;Signal;HPM_P1;HPM_P2
2023/03/13 00:01:33;;;;;;;49.45;44.33;;;;;;;-1.42;100.00;101553.81;5050974;28;20045;-77
2023/03/13 00:04:00;;;;;;;52.67;47.08;;;;;;;-1.78;100.00;101565.00;5050736;28;20045;-78
2023/03/13 00:06:31;;;;;;;53.55;47.95;;;;;;;-1.66;100.00;101564.16;5050564;28;20041;-77
2023/03/13 00:08:59;;;;;;;49.13;43.85;;;;;;;-1.63;100.00;101571.78;5051530;28;20048;-78
2023/03/13 00:11:26;;;;;;;54.65;49.05;;;;;;;-1.56;100.00;101569.56;5050258;28;20080;-78
2023/03/13 00:13:56;;;;;;;57.78;52.13;;;;;;;-1.64;100.00;101580.50;5049910;28;20049;-78
2023/03/13 00:16:23;;;;;;;52.53;47.03;;;;;;;-1.76;100.00;101576.13;5050955;28;20063;-78
2023/03/13 00:18:52;;;;;;;61.20;54.72;;;;;;;-1.82;100.00;101576.56;5052105;28;20731;-78
2023/03/13 00:21:22;;;;;;;50.22;45.50;;;;;;;-1.94;100.00;101580.81;5051863;28;20044;-77
2023/03/13 00:23:49;;;;;;;50.40;45.33;;;;;;;-1.90;100.00;101582.31;5048591;28;20049;-77
2023/03/13 00:26:18;;;;;;;54.45;48.63;;;;;;;-1.95;100.00;101580.94;5049575;28;20509;-78
2023/03/13 00:28:46;;;;;;;53.25;47.60;;;;;;;-1.80;100.00;101576.47;5050573;28;20053;-78
2023/03/13 00:31:16;;;;;;;48.45;43.78;;;;;;;-1.80;100.00;101585.13;5050571;28;20078;-78
2023/03/13 00:33:44;;;;;;;50.70;45.78;;;;;;;-2.08;100.00;101584.38;5051181;28;20052;-78
2023/03/13 00:36:12;;;;;;;53.05;47.95;;;;;;;-1.78;100.00;101582.41;5051459;28;20049;-78
2023/03/13 00:38:39;;;;;;;61.85;55.75;;;;;;;-1.96;100.00;101585.31;5052687;28;20400;-78
2023/03/13 00:41:10;;;;;;;59.90;53.92;;;;;;;-1.85;100.00;101593.25;5054246;28;20439;-78
2023/03/13 00:43:37;;;;;;;58.65;52.63;;;;;;;-1.98;100.00;101592.38;5054176;28;20045;-78
2023/03/13 00:46:04;;;;;;;54.10;49.22;;;;;;;-1.91;100.00;101593.63;5054989;28;20049;-78
2023/03/13 00:48:33;;;;;;;58.33;53.20;;;;;;;-2.07;100.00;101587.81;5052378;28;20056;-77
2023/03/13 00:51:00;;;;;;;64.40;58.90;;;;;;;-1.98;100.00;101592.38;5055700;28;20041;-78
2023/03/13 00:53:27;;;;;;;58.13;52.63;;;;;;;-2.41;100.00;101592.63;5053901;28;20418;-77
2023/03/13 00:55:56;;;;;;;57.33;52.03;;;;;;;-2.53;100.00;101593.44;5054566;28;20049;-78
2023/03/13 00:58:23;;;;;;;53.97;49.08;;;;;;;-2.15;100.00;101598.75;5055407;28;20053;-78
2023/03/13 01:00:51;;;;;;;63.85;57.67;;;;;;;-2.11;100.00;101601.97;5054935;28;20048;-78
2023/03/13 01:03:17;;;;;;;51.28;45.88;;;;;;;-2.00;100.00;101607.28;5053826;28;20540;-78
2023/03/13 01:05:54;;;;;;;53.75;48.42;;;;;;;-2.07;100.00;101612.06;5053680;28;20053;-78
2023/03/13 01:08:21;;;;;;;61.30;55.25;;;;;;;-1.94;100.00;101609.47;5052443;28;20502;-78
2023/03/13 01:10:48;;;;;;;56.97;51.78;;;;;;;-2.31;100.00;101608.47;5055033;28;20037;-78
2023/03/13 01:13:15;;;;;;;52.55;47.40;;;;;;;-2.30;100.00;101604.94;5054929;28;20049;-78
2023/03/13 01:15:42;;;;;;;53.92;48.72;;;;;;;-2.16;100.00;101610.06;5053912;28;20046;-78
2023/03/13 01:18:08;;;;;;;60.83;54.97;;;;;;;-1.95;100.00;101614.78;5052679;28;20049;-78
2023/03/13 01:20:35;;;;;;;55.60;50.35;;;;;;;-1.93;100.00;101610.31;5053898;28;20067;-78
2023/03/13 01:23:03;;;;;;;55.10;49.80;;;;;;;-1.92;100.00;101611.97;5053774;28;20522;-78
2023/03/13 01:25:30;;;;;;;53.80;48.75;;;;;;;-2.20;100.00;101608.63;5052815;28;20045;-78
2023/03/13 01:27:57;;;;;;;55.85;50.85;;;;;;;-2.02;100.00;101616.97;5052679;28;20430;-78
2023/03/13 01:30:24;;;;;;;54.78;49.38;;;;;;;-2.15;100.00;101621.31;5055286;28;20052;-77
2023/03/13 01:32:50;;;;;;;71.20;63.92;;;;;;;-2.19;100.00;101627.66;5053913;28;20052;-78
2023/03/13 01:35:18;;;;;;;66.80;60.00;;;;;;;-2.17;100.00;101621.44;5053724;28;20068;-78
2023/03/13 01:37:45;;;;;;;70.53;63.22;;;;;;;-2.37;100.00;101620.13;5053351;28;20048;-78
2023/03/13 01:40:14;;;;;;;73.78;66.25;;;;;;;-2.27;100.00;101622.13;5056548;28;20056;-78
2023/03/13 01:42:55;;;;;;;62.25;55.70;;;;;;;-2.16;100.00;101623.09;5054172;28;20084;-78
2023/03/13 01:46:00;;;;;;;60.08;54.30;;;;;;;-2.25;100.00;101628.06;5054236;28;20060;-77
2023/03/13 01:48:34;;;;;;;71.60;64.22;;;;;;;-2.43;100.00;101630.94;5055010;28;20430;-78
2023/03/13 01:51:04;;;;;;;70.45;63.03;;;;;;;-2.38;100.00;101631.47;5053429;28;20037;-78
2023/03/13 01:53:34;;;;;;;71.47;64.18;;;;;;;-2.37;100.00;101633.13;5053302;28;20103;-78
2023/03/13 01:56:08;;;;;;;59.33;53.35;;;;;;;-2.90;100.00;101627.00;5052030;28;20052;-78
2023/03/13 01:58:37;;;;;;;60.58;54.42;;;;;;;-2.62;100.00;101639.09;5052626;28;20040;-78
2023/03/13 02:01:05;;;;;;;68.13;61.55;;;;;;;-2.45;100.00;101640.63;5051120;28;20037;-78
2023/03/13 02:03:34;;;;;;;67.10;61.00;;;;;;;-2.38;100.00;101635.84;5053272;28;20492;-77
2023/03/13 02:06:02;;;;;;;68.47;62.17;;;;;;;-2.35;100.00;101640.84;5054553;28;20049;-77
2023/03/13 02:08:34;;;;;;;75.38;68.75;;;;;;;-2.41;100.00;101643.84;5054291;28;20466;-77
2023/03/13 02:11:10;;;;;;;68.22;61.60;;;;;;;-2.59;100.00;101644.09;5052704;28;21292;-78
2023/03/13 02:13:37;;;;;;;64.55;57.97;;;;;;;-2.64;100.00;101645.31;5050029;28;20041;-77
2023/03/13 02:16:06;;;;;;;75.82;67.22;;;;;;;-2.57;100.00;101650.03;5054307;28;20045;-78
2023/03/13 02:18:32;;;;;;;62.22;55.58;;;;;;;-2.59;100.00;101649.28;5053817;28;20049;-77
2023/03/13 02:21:07;;;;;;;62.92;56.45;;;;;;;-2.53;100.00;101654.09;5051895;28;20045;-77
2023/03/13 02:23:42;;;;;;;60.72;53.97;;;;;;;-2.50;100.00;101652.25;5051545;28;20045;-77
2023/03/13 02:26:10;;;;;;;59.25;51.70;;;;;;;-2.64;100.00;101668.72;5053828;28;20041;-78
2023/03/13 02:28:39;;;;;;;66.00;58.95;;;;;;;-2.62;100.00;101672.06;5051410;28;20477;-77
2023/03/13 02:31:06;;;;;;;80.93;72.35;;;;;;;-2.57;100.00;101670.03;5051676;28;20491;-78
2023/03/13 02:33:37;;;;;;;65.68;59.35;;;;;;;-2.68;100.00;101675.06;5052678;28;20103;-77
2023/03/13 02:36:06;;;;;;;62.80;56.70;;;;;;;-2.69;100.00;101674.22;5052759;28;20041;-78
2023/03/13 02:38:38;;;;;;;64.10;57.83;;;;;;;-2.76;100.00;101678.13;5051030;28;20045;-78
2023/03/13 02:41:06;;;;;;;56.45;51.08;;;;;;;-2.79;100.00;101679.16;5054176;28;20061;-78
2023/03/13 02:43:36;;;;;;;59.08;53.17;;;;;;;-2.80;100.00;101689.66;5051835;28;20048;-78
2023/03/13 02:46:09;;;;;;;62.10;56.17;;;;;;;-2.84;100.00;101686.44;5052672;28;20055;-78
2023/03/13 02:48:38;;;;;;;61.75;55.30;;;;;;;-2.77;100.00;101679.91;5052500;28;20041;-78
2023/03/13 02:51:10;;;;;;;65.57;59.03;;;;;;;-2.68;100.00;101691.50;5050282;28;20114;-78
2023/03/13 02:53:37;;;;;;;55.88;49.78;;;;;;;-2.85;100.00;101697.72;5052015;28;20064;-78
2023/03/13 02:56:06;;;;;;;62.67;56.33;;;;;;;-3.01;100.00;101702.22;5052946;28;20049;-77
2023/03/13 02:58:39;;;;;;;67.38;60.45;;;;;;;-3.08;100.00;101714.75;5049794;28;20053;-78
2023/03/13 03:03:41;;;;;;;65.18;58.60;;;;;;;-3.33;100.00;101722.34;4806119;22;20567;-78
2023/03/13 03:06:08;;;;;;;64.18;57.80;;;;;;;-3.23;100.00;101728.69;5053037;28;20061;-78
2023/03/13 03:08:36;;;;;;;68.65;61.85;;;;;;;-3.04;100.00;101718.84;5054988;28;20049;-79
2023/03/13 03:11:05;;;;;;;65.15;58.97;;;;;;;-2.86;100.00;101718.66;5056238;28;20102;-78
2023/03/13 03:13:32;;;;;;;69.00;62.75;;;;;;;-2.91;100.00;101726.72;5057086;28;20044;-78
2023/03/13 03:16:05;;;;;;;75.72;69.38;;;;;;;-2.85;100.00;101730.72;5059130;28;20045;-78
2023/03/13 03:18:32;;;;;;;61.17;55.53;;;;;;;-3.14;100.00;101728.13;5057968;28;20072;-78
2023/03/13 03:20:58;;;;;;;55.80;50.13;;;;;;;-2.87;100.00;101732.59;5056446;28;20060;-78
2023/03/13 03:23:25;;;;;;;59.00;53.00;;;;;;;-2.89;100.00;101747.44;5056995;28;20045;-78
2023/03/13 03:25:52;;;;;;;52.08;46.42;;;;;;;-3.09;100.00;101753.81;5057433;28;20057;-78
2023/03/13 03:28:19;;;;;;;64.35;50.80;;;;;;;-3.17;100.00;101750.88;5057254;28;20052;-78
2023/03/13 03:30:45;;;;;;;54.05;48.35;;;;;;;-3.11;100.00;101745.31;5056493;28;20071;-78
2023/03/13 03:33:13;;;;;;;54.38;48.75;;;;;;;-3.07;100.00;101751.97;5053294;28;20075;-77
2023/03/13 03:35:40;;;;;;;55.67;49.88;;;;;;;-3.30;100.00;101761.13;5054623;28;20114;-79
2023/03/13 03:38:07;;;;;;;54.15;48.65;;;;;;;-3.16;100.00;101761.16;5056787;28;20049;-78
2023/03/13 03:40:33;;;;;;;55.72;49.20;;;;;;;-2.91;100.00;101763.13;5057593;28;20041;-78
2023/03/13 03:43:00;;;;;;;61.13;53.97;;;;;;;-2.47;100.00;101780.38;5057211;28;20492;-78
2023/03/13 03:45:27;;;;;;;59.88;53.47;;;;;;;-2.84;100.00;101787.00;5055308;28;20048;-78
2023/03/13 03:47:53;;;;;;;49.33;44.03;;;;;;;-3.00;100.00;101782.69;5057692;28;20091;-78
2023/03/13 03:50:21;;;;;;;51.25;45.70;;;;;;;-2.61;100.00;101789.00;5057282;28;20063;-78
2023/03/13 03:52:50;;;;;;;50.88;44.33;;;;;;;-2.54;100.00;101805.09;5058025;28;20555;-79
2023/03/13 03:55:17;;;;;;;55.72;50.05;;;;;;;-2.93;100.00;101800.56;5057105;28;20103;-78
2023/03/13 03:57:44;;;;;;;51.08;45.53;;;;;;;-2.95;100.00;101803.22;5055938;28;20493;-78
2023/03/13 04:00:14;;;;;;;48.83;43.42;;;;;;;-2.91;100.00;101798.69;5057586;28;20045;-79
2023/03/13 04:02:42;;;;;;;46.53;41.60;;;;;;;-2.83;100.00;101810.31;5040064;28;20392;-79
2023/03/13 04:05:09;;;;;;;47.38;42.40;;;;;;;-2.63;100.00;101809.09;5036717;28;20133;-78
2023/03/13 04:07:37;;;;;;;45.72;41.05;;;;;;;-2.59;100.00;101818.38;5036678;28;20045;-78
2023/03/13 04:10:05;;;;;;;44.42;39.80;;;;;;;-2.61;100.00;101817.63;5036445;28;20041;-78
2023/03/13 04:12:31;;;;;;;47.85;43.08;;;;;;;-2.91;100.00;101828.13;5037766;28;21119;-78
2023/03/13 04:14:58;;;;;;;46.60;42.20;;;;;;;-3.37;100.00;101822.19;5042160;28;20045;-78
2023/03/13 04:17:25;;;;;;;54.33;49.28;;;;;;;-2.97;100.00;101825.06;5042745;28;20579;-78
2023/03/13 04:19:52;;;;;;;48.95;43.95;;;;;;;-3.02;100.00;101823.56;5044729;28;20069;-78
2023/03/13 04:22:19;;;;;;;45.80;40.95;;;;;;;-3.00;100.00;101820.88;5043247;28;20046;-78
2023/03/13 04:24:47;;;;;;;43.58;38.35;;;;;;;-3.10;100.00;101841.38;5042948;28;20046;-79
2023/03/13 04:27:14;;;;;;;44.05;39.53;;;;;;;-3.00;100.00;101852.88;5043296;28;20103;-78
2023/03/13 04:29:41;;;;;;;41.88;37.53;;;;;;;-3.00;100.00;101850.28;5044252;28;20046;-79
2023/03/13 04:32:08;;;;;;;40.08;36.30;;;;;;;-2.95;100.00;101857.00;5043243;28;20049;-79
2023/03/13 04:34:34;;;;;;;40.78;36.55;;;;;;;-3.16;100.00;101854.72;5042769;28;20103;-78
2023/03/13 04:37:01;;;;;;;48.33;43.70;;;;;;;-3.22;100.00;101853.31;5041458;28;20041;-78
2023/03/13 04:39:28;;;;;;;41.45;37.05;;;;;;;-3.17;100.00;101858.25;5042130;28;20510;-79
2023/03/13 04:41:56;;;;;;;43.30;37.90;;;;;;;-3.15;100.00;101864.19;5042726;28;20046;-78
2023/03/13 04:44:23;;;;;;;40.03;34.28;;;;;;;-3.59;100.00;101864.97;5043468;28;20115;-78
2023/03/13 04:46:50;;;;;;;46.20;38.50;;;;;;;-3.28;100.00;101864.06;5043093;28;20041;-78
2023/03/13 04:49:17;;;;;;;55.63;41.22;;;;;;;-2.89;100.00;101862.66;5043598;28;20103;-78
2023/03/13 04:51:44;;;;;;;46.17;37.05;;;;;;;-2.74;100.00;101873.09;5042471;28;20084;-79
2023/03/13 04:54:12;;;;;;;39.78;35.55;;;;;;;-2.62;100.00;101870.59;5042746;28;20053;-79
2023/03/13 04:56:38;;;;;;;42.08;37.15;;;;;;;-3.04;100.00;101872.19;5042041;28;20050;-78
2023/03/13 04:59:06;;;;;;;50.85;42.85;;;;;;;-2.63;100.00;101881.94;5046155;28;20088;-78
2023/03/13 05:01:33;;;;;;;50.92;40.20;;;;;;;-2.37;100.00;101882.94;5041972;28;20041;-79
2023/03/13 05:04:00;;;;;;;39.50;35.40;;;;;;;-2.18;100.00;101880.06;5043450;28;20109;-79
2023/03/13 05:06:27;;;;;;;40.13;36.17;;;;;;;-1.89;100.00;101878.25;5041482;28;20072;-78
2023/03/13 05:08:54;;;;;;;39.22;35.53;;;;;;;-1.93;100.00;101894.16;5009233;28;20053;-78
2023/03/13 05:11:20;;;;;;;37.28;33.25;;;;;;;-1.83;100.00;101894.41;5037697;28;20514;-79
2023/03/13 05:13:47;;;;;;;39.13;35.05;;;;;;;-1.88;100.00;101894.69;5033344;28;20486;-78
2023/03/13 05:16:15;;;;;;;41.28;37.17;;;;;;;-1.78;100.00;101897.59;5038277;28;20406;-78
2023/03/13 05:18:42;;;;;;;72.57;49.70;;;;;;;-1.89;100.00;101890.44;5031021;28;20103;-79
2023/03/13 05:21:09;;;;;;;63.38;45.90;;;;;;;-1.86;100.00;101893.66;5037467;28;20084;-79
2023/03/13 05:23:36;;;;;;;59.53;45.28;;;;;;;-2.11;100.00;101896.97;5043385;28;20049;-78
2023/03/13 05:26:03;;;;;;;52.83;43.80;;;;;;;-2.16;100.00;101908.59;5031472;28;20049;-78
2023/03/13 05:28:29;;;;;;;49.67;41.30;;;;;;;-2.02;100.00;101903.38;5028256;28;20128;-78
2023/03/13 05:30:56;;;;;;;53.80;43.45;;;;;;;-1.76;100.00;101900.91;5034994;28;20053;-78
2023/03/13 05:33:24;;;;;;;65.57;48.70;;;;;;;-1.77;100.00;101904.44;5039673;28;20053;-78
2023/03/13 05:35:51;;;;;;;55.75;46.83;;;;;;;-1.66;100.00;101895.03;5030836;28;20116;-78
2023/03/13 05:38:18;;;;;;;52.17;43.40;;;;;;;-1.33;100.00;101905.97;5034298;28;20103;-78
2023/03/13 05:40:44;;;;;;;45.92;40.75;;;;;;;-0.84;100.00;101905.38;5034249;28;20128;-78
2023/03/13 05:43:11;;;;;;;48.55;39.40;;;;;;;-0.76;100.00;101897.84;5030990;28;20072;-78
2023/03/13 05:45:38;;;;;;;42.60;38.15;;;;;;;-0.60;100.00;101900.28;5011661;28;20528;-78
2023/03/13 05:48:05;;;;;;;39.83;35.53;;;;;;;-0.45;100.00;101904.44;5058456;28;20107;-79
2023/03/13 05:50:33;;;;;;;40.78;36.30;;;;;;;-0.17;100.00;101903.34;5058821;28;20040;-78
2023/03/13 05:53:00;;;;;;;38.53;34.67;;;;;;;-0.24;100.00;101907.34;5058788;28;20044;-78
2023/03/13 05:55:27;;;;;;;37.20;33.20;;;;;;;-0.40;100.00;101915.38;5056126;28;20044;-78
2023/03/13 05:57:54;;;;;;;36.55;32.88;;;;;;;0.19;100.00;101917.38;5050910;28;20499;-78
2023/03/13 06:00:21;;;;;;;37.63;33.63;;;;;;;0.61;100.00;101917.88;5052227;28;20111;-78
2023/03/13 06:02:48;;;;;;;34.50;31.10;;;;;;;0.50;100.00;101916.03;5050257;28;20053;-78
2023/03/13 06:05:15;;;;;;;34.80;31.23;;;;;;;0.74;100.00;101918.63;5061707;28;20075;-79
2023/03/13 06:07:43;;;;;;;34.60;31.08;;;;;;;1.18;100.00;101918.88;5060514;28;20040;-78
2023/03/13 06:10:11;;;;;;;33.00;29.55;;;;;;;1.33;100.00;101922.97;5058591;28;20098;-78
2023/03/13 06:12:38;;;;;;;32.75;29.45;;;;;;;1.11;100.00;101921.97;5048568;28;20526;-79
2023/03/13 06:15:08;;;;;;;32.17;29.08;;;;;;;1.53;100.00;101921.47;5053042;28;20099;-79
2023/03/13 06:17:35;;;;;;;32.60;29.63;;;;;;;1.84;100.00;101931.22;5051927;28;20053;-80
2023/03/13 06:20:02;;;;;;;33.30;30.02;;;;;;;1.75;100.00;101926.69;5054791;28;20081;-81
2023/03/13 06:22:29;;;;;;;34.15;30.75;;;;;;;2.11;100.00;101924.78;5052945;28;20052;-81
2023/03/13 06:24:57;;;;;;;32.95;29.58;;;;;;;2.20;100.00;101933.72;4996462;28;20451;-80
2023/03/13 06:27:24;;;;;;;37.42;33.50;;;;;;;2.24;100.00;101924.63;5049518;28;20505;-81
2023/03/13 06:29:51;;;;;;;31.55;28.55;;;;;;;2.65;100.00;101923.13;5060179;28;20041;-80
2023/03/13 06:32:17;;;;;;;35.78;32.30;;;;;;;2.80;100.00;101923.66;5060441;28;20600;-81
2023/03/13 06:34:44;;;;;;;33.72;30.35;;;;;;;2.98;100.00;101909.03;5053828;28;20106;-81
2023/03/13 06:37:11;;;;;;;34.55;31.30;;;;;;;3.33;100.00;101899.97;5054150;28;20053;-81
2023/03/13 06:39:38;;;;;;;34.00;30.33;;;;;;;3.39;100.00;101891.59;5054618;28;20121;-81
2023/03/13 06:42:07;;;;;;;32.42;29.27;;;;;;;3.63;100.00;101894.75;5054512;28;20110;-81
2023/03/13 06:44:33;;;;;;;29.20;26.50;;;;;;;3.73;100.00;101879.03;5053639;28;20065;-81
2023/03/13 06:47:00;;;;;;;31.88;27.30;;;;;;;3.84;100.00;101881.56;5052714;28;20041;-81
2023/03/13 06:49:27;;;;;;;28.98;26.38;;;;;;;4.17;100.00;101876.09;5060179;28;20045;-81
2023/03/13 06:51:54;;;;;;;24.23;21.95;;;;;;;4.29;100.00;101878.47;5055020;28;20041;-80
2023/03/13 06:54:20;;;;;;;26.02;23.83;;;;;;;4.39;100.00;101883.75;5054807;28;20394;-81
2023/03/13 06:56:47;;;;;;;25.08;22.98;;;;;;;4.83;100.00;101884.16;5051965;28;20107;-81
2023/03/13 06:59:15;;;;;;;26.00;23.70;;;;;;;5.00;100.00;101882.63;5061691;28;20077;-81
2023/03/13 07:01:42;;;;;;;28.42;25.88;;;;;;;4.83;100.00;101884.16;5060925;28;20049;-81
2023/03/13 07:04:12;;;;;;;28.98;26.38;;;;;;;4.86;100.00;101885.69;5055677;28;20045;-81
2023/03/13 07:06:39;;;;;;;28.15;25.42;;;;;;;6.46;100.00;101890.75;5053372;28;20045;-81
2023/03/13 07:09:05;;;;;;;28.58;25.98;;;;;;;5.59;100.00;101888.56;5061915;28;20114;-81
2023/03/13 07:11:32;;;;;;;28.30;25.70;;;;;;;5.13;100.00;101895.50;5062224;28;20099;-81
2023/03/13 07:14:00;;;;;;;27.45;24.98;;;;;;;4.91;100.00;101897.47;5060528;28;20122;-81
2023/03/13 07:16:29;;;;;;;28.15;25.73;;;;;;;5.17;100.00;101896.88;5059020;28;20498;-81
2023/03/13 07:18:55;;;;;;;28.52;25.90;;;;;;;5.38;100.00;101889.59;5059821;28;20477;-81
2023/03/13 07:21:22;;;;;;;26.02;23.75;;;;;;;5.37;100.00;101893.22;5057655;28;20501;-80
2023/03/13 07:23:49;;;;;;;27.85;25.45;;;;;;;6.02;100.00;101881.88;5060748;28;20049;-81
2023/03/13 07:26:16;;;;;;;27.67;25.38;;;;;;;4.94;100.00;101885.84;5061027;28;20122;-80
2023/03/13 07:28:43;;;;;;;25.70;23.38;;;;;;;5.55;100.00;101893.31;5054603;28;20049;-80
2023/03/13 07:31:13;;;;;;;27.08;24.58;;;;;;;6.23;100.00;101887.72;5060896;28;20049;-81
2023/03/13 07:33:42;;;;;;;29.85;27.25;;;;;;;6.62;100.00;101901.47;5062183;28;20049;-81
2023/03/13 07:36:09;;;;;;;27.52;25.13;;;;;;;6.80;100.00;101900.63;5061128;28;20086;-81
2023/03/13 07:38:36;;;;;;;31.80;29.10;;;;;;;6.65;100.00;101889.78;5058870;28;20075;-81
2023/03/13 07:41:03;;;;;;;28.63;26.10;;;;;;;6.79;100.00;101883.16;5063786;28;20486;-81
2023/03/13 07:43:31;;;;;;;25.77;23.50;;;;;;;6.11;100.00;101884.47;5059734;28;20044;-81
2023/03/13 07:45:59;;;;;;;27.48;25.05;;;;;;;7.77;100.00;101881.09;5062200;28;20142;-81
2023/03/13 07:48:29;;;;;;;30.25;27.95;;;;;;;6.43;100.00;101891.88;5057980;28;20045;-81
2023/03/13 07:50:58;;;;;;;28.42;26.00;;;;;;;6.94;100.00;101886.06;5058379;28;20107;-81
2023/03/13 07:53:27;;;;;;;29.58;27.17;;;;;;;7.50;100.00;101875.03;5060540;28;20123;-81
2023/03/13 07:55:55;;;;;;;28.92;26.45;;;;;;;7.74;100.00;101892.00;5056042;28;20045;-81
2023/03/13 07:58:23;;;;;;;28.42;26.23;;;;;;;7.85;100.00;101893.53;5064465;28;20036;-81
2023/03/13 08:00:49;;;;;;;26.73;24.63;;;;;;;7.99;100.00;101896.41;5060864;28;20045;-81
2023/03/13 08:03:16;;;;;;;26.65;24.38;;;;;;;7.62;100.00;101896.72;5062423;28;20044;-81
2023/03/13 08:05:43;;;;;;;26.63;24.25;;;;;;;7.55;100.00;101898.34;5062108;28;20045;-81
2023/03/13 08:08:11;;;;;;;27.02;24.83;;;;;;;8.70;100.00;101886.31;5061633;28;20144;-81
2023/03/13 08:10:38;;;;;;;28.83;26.48;;;;;;;9.15;100.00;101890.28;5061782;28;20049;-81
2023/03/13 08:13:04;;;;;;;27.65;25.25;;;;;;;7.52;100.00;101891.56;5061194;28;20040;-81
2023/03/13 08:15:31;;;;;;;24.58;22.52;;;;;;;7.97;100.00;101887.78;5060870;28;20044;-81
2023/03/13 08:17:58;;;;;;;23.48;21.42;;;;;;;9.28;100.00;101885.28;5064490;28;20074;-81
2023/03/13 08:20:25;;;;;;;26.42;24.10;;;;;;;7.58;100.00;101882.19;5064950;28;20049;-81
2023/03/13 08:22:51;;;;;;;26.30;24.08;;;;;;;8.61;100.00;101880.19;5062567;28;20042;-81
2023/03/13 08:25:19;;;;;;;26.17;23.95;;;;;;;8.45;100.00;101888.94;5063024;28;20053;-81
2023/03/13 08:27:46;;;;;;;28.95;26.65;;;;;;;7.30;100.00;101879.72;5061882;28;20045;-81
2023/03/13 08:30:14;;;;;;;27.55;25.15;;;;;;;8.14;100.00;101883.41;5066045;28;20045;-81
2023/03/13 08:32:40;;;;;;;25.92;23.67;;;;;;;8.79;100.00;101882.69;5059993;28;20075;-81
2023/03/13 08:35:08;;;;;;;26.05;23.95;;;;;;;8.83;100.00;101865.44;5062017;28;21193;-81
2023/03/13 08:37:35;;;;;;;25.48;23.35;;;;;;;8.93;100.00;101878.53;5061819;28;20044;-81
2023/03/13 08:40:02;;;;;;;22.13;20.33;;;;;;;10.41;100.00;101876.19;5064833;28;20182;-81
2023/03/13 08:42:31;;;;;;;23.83;21.45;;;;;;;9.79;100.00;101874.34;5063919;28;20056;-81
2023/03/13 08:44:57;;;;;;;26.00;23.80;;;;;;;10.29;100.00;101870.47;5066833;28;20049;-81
2023/03/13 08:47:24;;;;;;;25.33;23.13;;;;;;;11.41;92.84;101866.16;5060816;28;20075;-82
2023/03/13 08:49:51;;;;;;;28.98;26.27;;;;;;;10.83;93.33;101867.72;5064188;28;20098;-81
2023/03/13 08:52:17;;;;;;;25.90;23.75;;;;;;;11.27;91.26;101866.16;5060395;28;20041;-81
2023/03/13 08:54:44;;;;;;;25.73;23.63;;;;;;;11.39;83.84;101857.53;5066443;28;20044;-81
2023/03/13 08:57:11;;;;;;;25.83;23.75;;;;;;;9.70;84.51;101860.28;5059838;28;20049;-81
2023/03/13 08:59:39;;;;;;;28.08;25.77;;;;;;;11.19;79.56;101853.75;5067168;28;20060;-81
2023/03/13 09:02:06;;;;;;;24.48;22.60;;;;;;;10.73;77.61;101852.03;5064945;28;20082;-81
2023/03/13 09:04:32;;;;;;;24.27;21.95;;;;;;;10.25;84.89;101859.31;5062663;28;20080;-81
2023/03/13 09:06:59;;;;;;;21.60;19.88;;;;;;;11.80;73.37;101849.09;5068277;28;20075;-81
2023/03/13 09:09:26;;;;;;;22.77;20.88;;;;;;;9.98;75.32;101850.03;5066836;28;20103;-81
2023/03/13 09:11:53;;;;;;;23.15;21.27;;;;;;;10.69;70.32;101855.25;5068741;28;20037;-81
2023/03/13 09:14:20;;;;;;;23.48;21.75;;;;;;;11.49;80.25;101845.78;5066205;28;20057;-81
2023/03/13 09:16:48;;;;;;;25.13;23.23;;;;;;;12.85;78.83;101845.00;5063710;28;20049;-81
2023/03/13 09:19:15;;;;;;;23.63;21.63;;;;;;;13.64;72.56;101857.22;5067442;28;20060;-81
2023/03/13 09:21:42;;;;;;;21.58;19.98;;;;;;;13.38;75.47;101847.25;5064050;28;20049;-81
2023/03/13 09:24:08;;;;;;;25.27;23.17;;;;;;;13.36;66.47;101851.94;5066258;28;20041;-81
2023/03/13 09:26:35;;;;;;;24.67;22.77;;;;;;;12.46;67.89;101854.31;5067792;28;20052;-81
2023/03/13 09:29:02;;;;;;;25.45;23.45;;;;;;;13.06;72.08;101844.13;5064581;28;20075;-82
2023/03/13 09:31:30;;;;;;;25.35;23.35;;;;;;;13.27;67.19;101846.75;5067719;28;20490;-81
2023/03/13 09:33:59;;;;;;;24.55;22.55;;;;;;;11.94;63.65;101858.06;5065672;28;20041;-81
2023/03/13 09:36:26;;;;;;;22.45;20.58;;;;;;;11.52;64.96;101854.22;5064456;28;20049;-82
2023/03/13 09:38:55;;;;;;;24.85;23.17;;;;;;;11.38;73.35;101853.25;5067512;28;20078;-81
2023/03/13 09:41:26;;;;;;;25.00;23.13;;;;;;;11.23;72.92;101849.75;5068695;28;20080;-81
2023/03/13 09:44:00;;;;;;;24.55;22.65;;;;;;;11.73;82.80;101850.00;5065309;28;20049;-81
2023/03/13 09:46:36;;;;;;;22.55;20.63;;;;;;;12.88;78.22;101847.28;5065592;28;20049;-81
2023/03/13 09:49:12;;;;;;;23.60;21.80;;;;;;;13.34;65.15;101844.13;5067665;28;20049;-81
2023/03/13 09:51:43;;;;;;;24.27;22.45;;;;;;;11.74;61.95;101841.84;5063463;28;20068;-81
2023/03/13 09:54:27;;;;;;;26.30;23.80;;;;;;;14.34;65.88;101841.81;5062103;28;20045;-81
2023/03/13 09:56:59;;;;;;;27.67;25.67;;;;;;;14.91;56.60;101836.94;5062342;28;20056;-81
2023/03/13 09:59:34;;;;;;;26.38;24.67;;;;;;;15.38;59.35;101826.97;5070114;28;20048;-81
2023/03/13 10:02:05;;;;;;;25.90;24.00;;;;;;;12.28;59.04;101830.75;5071394;28;20088;-81
2023/03/13 10:04:39;;;;;;;22.85;20.80;;;;;;;14.03;61.18;101824.50;5071026;28;20040;-82
2023/03/13 10:07:10;;;;;;;25.08;23.17;;;;;;;12.00;63.97;101822.69;5069647;28;20057;-81
2023/03/13 10:09:39;;;;;;;22.95;21.25;;;;;;;12.22;70.63;101820.06;5065366;28;20060;-81
2023/03/13 10:12:12;;;;;;;27.77;25.75;;;;;;;14.86;54.93;101816.16;5058963;28;20144;-81
2023/03/13 10:14:45;;;;;;;24.52;22.73;;;;;;;11.34;55.65;101816.53;5059391;28;20037;-83
2023/03/13 10:17:20;;;;;;;23.40;21.60;;;;;;;15.71;53.85;101811.63;5088017;28;20040;-82
2023/03/13 10:19:55;;;;;;;24.60;22.77;;;;;;;16.62;51.33;101805.03;5081471;28;20127;-81
2023/03/13 10:22:26;;;;;;;28.13;26.23;;;;;;;15.49;47.14;101804.88;5070688;28;20052;-81
2023/03/13 10:24:58;;;;;;;27.88;25.88;;;;;;;13.72;61.04;101814.34;5069953;28;20048;-82
2023/03/13 10:27:25;;;;;;;26.20;24.35;;;;;;;15.82;56.07;101804.75;5072327;28;20040;-82
2023/03/13 10:29:51;;;;;;;24.95;23.10;;;;;;;17.05;50.29;101795.38;5064062;28;20052;-82
2023/03/13 10:32:19;;;;;;;26.50;24.40;;;;;;;13.64;47.47;101799.31;5071426;28;20048;-81
2023/03/13 10:34:52;;;;;;;25.15;23.25;;;;;;;14.02;50.36;101800.66;5057521;28;20053;-82
2023/03/13 10:37:23;;;;;;;30.27;28.17;;;;;;;14.98;57.36;101789.63;5062791;28;20049;-82
2023/03/13 10:39:50;;;;;;;27.92;25.63;;;;;;;15.11;52.74;101781.53;5071141;28;20079;-81
2023/03/13 10:42:26;;;;;;;29.08;26.98;;;;;;;17.22;48.59;101774.94;5071607;28;20041;-82
2023/03/13 10:44:58;;;;;;;24.65;22.85;;;;;;;13.98;45.42;101782.38;5070211;28;20049;-81
2023/03/13 10:47:25;;;;;;;25.30;23.10;;;;;;;15.23;53.29;101773.69;5070484;28;20045;-82
2023/03/13 10:49:57;;;;;;;26.23;24.20;;;;;;;16.22;47.06;101767.00;5070011;28;20045;-81
2023/03/13 10:52:33;;;;;;;28.40;26.30;;;;;;;14.13;47.10;101778.69;5071020;28;20071;-81
2023/03/13 10:55:02;;;;;;;29.45;27.17;;;;;;;16.87;46.63;101756.75;5080660;28;20045;-81
2023/03/13 10:57:30;;;;;;;28.35;26.35;;;;;;;13.80;49.06;101755.44;5070265;28;20052;-81
2023/03/13 10:59:59;;;;;;;25.77;23.63;;;;;;;16.13;47.92;101742.34;5070675;28;20075;-81
2023/03/13 11:02:32;;;;;;;26.90;24.73;;;;;;;16.52;46.63;101737.69;5069494;28;20056;-81
2023/03/13 11:05:01;;;;;;;28.25;26.15;;;;;;;18.15;44.23;101733.38;5064457;28;20494;-82
2023/03/13 11:07:30;;;;;;;28.80;26.60;;;;;;;17.75;41.86;101727.78;5069068;28;20049;-81
2023/03/13 11:10:03;;;;;;;27.92;25.75;;;;;;;17.45;45.00;101725.09;5070103;28;20568;-81
2023/03/13 11:12:35;;;;;;;30.70;28.33;;;;;;;14.96;44.87;101730.13;5069960;28;20041;-82